createdAt,value
2022-10-09T00:01:58.655Z,12.86
2022-10-09T00:04:29.957Z,12.80
2022-10-09T00:07:01.243Z,12.93
2022-10-09T00:09:32.493Z,13.01
2022-10-09T00:12:03.705Z,12.94
2022-10-09T00:14:35.293Z,12.86
2022-10-09T00:17:06.969Z,12.79
2022-10-09T00:19:38.239Z,12.75
2022-10-09T00:22:09.775Z,12.71
2022-10-09T00:24:41.628Z,12.63
2022-10-09T00:27:13.072Z,12.74
2022-10-09T00:29:44.227Z,12.77
2022-10-09T00:32:15.467Z,12.77
2022-10-09T00:34:46.966Z,12.79
2022-10-09T00:37:20.195Z,12.79
2022-10-09T00:39:51.453Z,12.70
2022-10-09T00:42:22.995Z,12.67
2022-10-09T00:45:00.294Z,12.61
2022-10-09T00:47:37.584Z,12.57
2022-10-09T00:50:15.491Z,12.46
2022-10-09T00:52:47.406Z,12.33
2022-10-09T00:55:19.213Z,12.24
2022-10-09T00:57:51.491Z,12.21
2022-10-09T01:00:23.273Z,12.30
2022-10-09T01:02:54.884Z,12.44
2022-10-09T01:05:34.437Z,12.34
2022-10-09T01:08:11.874Z,12.25
2022-10-09T01:10:51.699Z,12.25
2022-10-09T01:13:29.533Z,12.27
2022-10-09T01:16:05.060Z,12.36
2022-10-09T01:18:45.138Z,12.31
2022-10-09T01:21:21.269Z,12.26
2022-10-09T01:24:09.045Z,12.25
2022-10-09T01:27:01.737Z,12.16
2022-10-09T01:29:37.801Z,12.07
2022-10-09T01:32:11.350Z,12.13
2022-10-09T01:37:44.161Z,12.14
2022-10-09T01:40:18.238Z,12.10
2022-10-09T01:42:49.807Z,12.09
2022-10-09T01:45:21.625Z,12.13
2022-10-09T01:47:53.128Z,11.99
2022-10-09T01:50:28.535Z,12.08
2022-10-09T01:53:03.071Z,12.05
2022-10-09T01:55:41.424Z,12.13
2022-10-09T01:58:20.750Z,12.18
2022-10-09T02:00:58.407Z,12.21
2022-10-09T02:03:32.898Z,12.17
2022-10-09T02:06:05.169Z,12.18
2022-10-09T02:08:38.902Z,12.11
2022-10-09T02:11:11.656Z,12.06
2022-10-09T02:13:43.811Z,12.07
2022-10-09T02:16:20.269Z,12.10
2022-10-09T02:18:59.606Z,12.04
2022-10-09T02:21:40.151Z,11.91
2022-10-09T02:24:15.564Z,11.89
2022-10-09T02:26:46.911Z,11.88
2022-10-09T02:29:18.910Z,11.83
2022-10-09T02:31:50.360Z,11.90
2022-10-09T02:34:22.668Z,11.84
2022-10-09T02:36:53.949Z,11.81
2022-10-09T02:39:25.342Z,11.79
2022-10-09T02:41:56.711Z,11.78
2022-10-09T02:44:28.460Z,11.71
2022-10-09T02:47:00.210Z,11.69
2022-10-09T02:49:31.397Z,11.64
2022-10-09T02:52:02.763Z,11.63
2022-10-09T02:54:34.089Z,11.60
2022-10-09T02:57:05.432Z,11.67
2022-10-09T02:59:37.126Z,11.66
2022-10-09T03:02:08.315Z,11.64
2022-10-09T03:04:39.702Z,11.73
2022-10-09T03:07:11.589Z,11.71
2022-10-09T03:09:43.168Z,11.64
2022-10-09T03:12:16.361Z,11.63
2022-10-09T03:14:47.557Z,11.59
2022-10-09T03:17:18.809Z,11.55
2022-10-09T03:19:52.950Z,11.58
2022-10-09T03:22:30.259Z,11.45
2022-10-09T03:25:01.707Z,11.32
2022-10-09T03:27:33.441Z,11.23
2022-10-09T03:30:05.194Z,11.19
2022-10-09T03:32:36.582Z,11.23
2022-10-09T03:35:10.858Z,11.21
2022-10-09T03:37:42.099Z,11.24
2022-10-09T03:40:15.148Z,11.17
2022-10-09T03:42:46.649Z,11.22
2022-10-09T03:45:18.583Z,11.29
2022-10-09T03:47:49.860Z,11.29
2022-10-09T03:50:21.079Z,11.28
2022-10-09T03:52:52.704Z,11.22
2022-10-09T03:55:24.297Z,11.13
2022-10-09T03:57:55.517Z,11.06
2022-10-09T04:00:27.148Z,11.04
2022-10-09T04:02:58.554Z,11.03
2022-10-09T04:05:30.660Z,11.18
2022-10-09T04:08:02.195Z,11.18
2022-10-09T04:10:33.482Z,11.24
2022-10-09T04:13:05.043Z,11.17
2022-10-09T04:15:37.035Z,11.23
2022-10-09T04:18:09.193Z,11.21
2022-10-09T04:20:40.399Z,11.17
2022-10-09T04:23:11.602Z,11.18
2022-10-09T04:25:43.180Z,11.27
2022-10-09T04:28:14.486Z,11.33
2022-10-09T04:30:45.948Z,11.27
2022-10-09T04:33:17.268Z,11.21
2022-10-09T04:35:51.728Z,11.13
2022-10-09T04:38:23.939Z,11.04
2022-10-09T04:41:02.472Z,10.93
2022-10-09T04:43:34.639Z,10.87
2022-10-09T04:46:09.861Z,11.06
2022-10-09T04:48:45.786Z,10.98
2022-10-09T04:51:18.296Z,10.94
2022-10-09T04:53:50.222Z,10.87
2022-10-09T04:56:24.278Z,10.85
2022-10-09T04:58:56.067Z,10.86
2022-10-09T05:01:33.110Z,10.86
2022-10-09T05:04:08.765Z,11.11
2022-10-09T05:06:40.120Z,11.17
2022-10-09T05:09:11.335Z,11.20
2022-10-09T05:11:43.054Z,11.19
2022-10-09T05:14:14.740Z,11.12
2022-10-09T05:17:08.769Z,11.15
2022-10-09T05:19:37.391Z,11.27
2022-10-09T05:22:08.738Z,11.23
2022-10-09T05:24:40.073Z,11.18
2022-10-09T05:27:11.302Z,11.33
2022-10-09T05:29:42.755Z,11.26
2022-10-09T05:32:15.015Z,11.22
2022-10-09T05:34:46.465Z,11.16
2022-10-09T05:37:17.724Z,11.17
2022-10-09T05:39:49.398Z,11.21
2022-10-09T05:42:20.687Z,11.19
2022-10-09T05:44:52.118Z,11.07
2022-10-09T05:47:23.264Z,10.99
2022-10-09T05:49:54.597Z,10.97
2022-10-09T05:52:25.926Z,10.99
2022-10-09T05:54:57.523Z,11.12
2022-10-09T05:57:29.598Z,11.18
2022-10-09T06:00:01.181Z,11.14
2022-10-09T06:02:32.479Z,10.99
2022-10-09T06:05:04.045Z,10.91
2022-10-09T06:07:35.459Z,10.94
2022-10-09T06:10:07.444Z,11.02
2022-10-09T06:12:38.644Z,11.02
2022-10-09T06:15:11.940Z,10.91
2022-10-09T06:17:43.143Z,10.83
2022-10-09T06:20:15.740Z,10.76
2022-10-09T06:22:47.214Z,10.77
2022-10-09T06:25:18.917Z,10.94
2022-10-09T06:27:50.298Z,11.09
2022-10-09T06:30:21.605Z,11.16
2022-10-09T06:32:52.880Z,11.02
2022-10-09T06:35:24.491Z,10.97
2022-10-09T06:37:55.693Z,11.14
2022-10-09T06:40:27.077Z,11.11
2022-10-09T06:42:58.281Z,11.06
2022-10-09T06:45:29.893Z,11.10
2022-10-09T06:48:01.093Z,11.06
2022-10-09T06:50:32.416Z,10.97
2022-10-09T06:53:03.868Z,10.87
2022-10-09T06:55:35.282Z,11.10
2022-10-09T06:58:06.619Z,11.29
2022-10-09T07:00:38.210Z,11.33
2022-10-09T07:03:09.660Z,11.38
2022-10-09T07:05:41.341Z,11.44
2022-10-09T07:08:12.615Z,11.44
2022-10-09T07:10:43.724Z,11.44
2022-10-09T07:13:15.190Z,11.36
2022-10-09T07:15:49.255Z,11.50
2022-10-09T07:18:20.466Z,11.39
2022-10-09T07:20:51.731Z,11.36
2022-10-09T07:23:23.961Z,11.35
2022-10-09T07:25:55.435Z,11.24
2022-10-09T07:28:28.832Z,11.29
2022-10-09T07:31:03.716Z,11.31
2022-10-09T07:33:35.131Z,11.39
2022-10-09T07:36:08.052Z,11.54
2022-10-09T07:38:39.441Z,11.42
2022-10-09T07:41:12.835Z,11.36
2022-10-09T07:43:44.744Z,11.41
2022-10-09T07:46:18.434Z,11.49
2022-10-09T07:48:51.074Z,11.49
2022-10-09T07:51:24.245Z,11.65
2022-10-09T07:53:57.557Z,11.64
2022-10-09T07:56:31.309Z,11.64
2022-10-09T07:59:04.800Z,11.60
2022-10-09T08:01:37.326Z,11.46
2022-10-09T08:04:09.655Z,11.55
2022-10-09T08:06:41.148Z,11.58
2022-10-09T08:09:12.447Z,11.49
2022-10-09T08:11:44.756Z,11.48
2022-10-09T08:14:19.150Z,11.46
2022-10-09T08:16:51.083Z,11.41
2022-10-09T08:19:22.341Z,11.45
2022-10-09T08:21:54.180Z,11.61
2022-10-09T08:24:25.764Z,11.69
2022-10-09T08:26:57.014Z,11.66
2022-10-09T08:29:28.240Z,11.62
2022-10-09T08:31:59.626Z,11.70
2022-10-09T08:34:31.418Z,11.66
2022-10-09T08:37:02.628Z,11.66
2022-10-09T08:39:33.790Z,11.65
2022-10-09T08:42:06.410Z,11.62
2022-10-09T08:44:42.542Z,11.54
2022-10-09T08:47:21.972Z,11.55
2022-10-09T08:49:57.923Z,11.60
2022-10-09T08:52:36.986Z,11.84
2022-10-09T08:55:16.106Z,11.88
2022-10-09T08:57:51.041Z,11.92
2022-10-09T09:00:24.481Z,12.06
2022-10-09T09:03:28.181Z,12.18
2022-10-09T09:06:04.914Z,12.28
2022-10-09T09:08:46.602Z,12.28
2022-10-09T09:11:29.286Z,12.30
2022-10-09T09:14:13.125Z,12.34
2022-10-09T09:16:51.642Z,12.41
2022-10-09T09:19:44.442Z,12.38
2022-10-09T09:22:17.412Z,12.53
2022-10-09T09:24:52.895Z,12.60
2022-10-09T09:27:29.127Z,12.59
2022-10-09T09:30:04.601Z,12.60
2022-10-09T09:32:36.900Z,12.72
2022-10-09T09:35:20.744Z,12.67
2022-10-09T09:37:52.263Z,12.61
2022-10-09T09:40:36.057Z,12.63
2022-10-09T09:43:18.237Z,12.65
2022-10-09T09:45:50.780Z,12.55
2022-10-09T09:48:29.372Z,12.59
2022-10-09T09:51:23.623Z,12.58
2022-10-09T09:53:55.489Z,12.69
2022-10-09T09:57:06.993Z,12.84
2022-10-09T09:59:37.602Z,12.87
2022-10-09T10:02:16.985Z,12.86
2022-10-09T10:04:58.959Z,12.84
2022-10-09T10:07:35.510Z,13.01
2022-10-09T10:10:15.628Z,13.02
2022-10-09T10:12:49.479Z,13.02
2022-10-09T10:15:25.086Z,12.99
2022-10-09T10:18:03.679Z,13.01
2022-10-09T10:20:44.165Z,12.90
2022-10-09T10:23:26.634Z,12.90
2022-10-09T10:26:02.201Z,13.07
2022-10-09T10:28:37.646Z,13.10
2022-10-09T10:31:17.055Z,13.07
2022-10-09T10:33:52.889Z,13.11
2022-10-09T10:36:25.492Z,13.11
2022-10-09T10:39:03.935Z,13.22
2022-10-09T10:41:39.233Z,13.11
2022-10-09T10:44:20.549Z,13.02
2022-10-09T10:46:56.482Z,13.04
2022-10-09T10:49:33.515Z,13.10
2022-10-09T10:52:20.028Z,13.26
2022-10-09T10:54:58.574Z,13.41
2022-10-09T10:57:47.303Z,13.38
2022-10-09T11:00:19.276Z,13.38
2022-10-09T11:03:08.042Z,13.51
2022-10-09T11:05:51.961Z,13.61
2022-10-09T11:08:45.982Z,13.56
2022-10-09T11:11:24.138Z,13.73
2022-10-09T11:14:06.880Z,13.77
2022-10-09T11:16:50.506Z,13.74
2022-10-09T11:19:44.465Z,13.78
2022-10-09T11:22:29.750Z,13.83
2022-10-09T11:25:11.356Z,13.68
2022-10-09T11:27:49.306Z,13.77
2022-10-09T11:30:22.018Z,13.74
2022-10-09T11:33:01.478Z,13.68
2022-10-09T11:35:38.334Z,13.63
2022-10-09T11:38:24.420Z,13.57
2022-10-09T11:40:56.788Z,13.61
2022-10-09T11:43:48.447Z,13.70
2022-10-09T11:46:29.698Z,13.74
2022-10-09T11:49:12.040Z,13.88
2022-10-09T11:51:49.685Z,13.89
2022-10-09T11:54:24.347Z,13.75
2022-10-09T11:56:59.192Z,13.73
2022-10-09T11:59:34.214Z,13.75
2022-10-09T12:02:26.659Z,13.71
2022-10-09T12:04:58.359Z,13.74
2022-10-09T12:07:36.378Z,13.66
2022-10-09T12:10:10.800Z,13.70
2022-10-09T12:12:43.644Z,13.70
2022-10-09T12:15:29.442Z,13.85
2022-10-09T12:18:01.105Z,14.06
2022-10-09T12:20:32.655Z,14.09
2022-10-09T12:25:57.440Z,14.17
2022-10-09T12:28:39.959Z,14.24
2022-10-09T12:31:20.101Z,14.27
2022-10-09T12:33:56.393Z,14.26
2022-10-09T12:36:29.476Z,14.35
2022-10-09T12:39:13.456Z,14.41
2022-10-09T12:41:47.467Z,14.33
2022-10-09T12:44:30.388Z,14.20
2022-10-09T12:47:06.490Z,14.30
2022-10-09T12:49:38.832Z,14.25
2022-10-09T12:52:17.358Z,14.19
2022-10-09T12:54:48.652Z,14.23
2022-10-09T12:57:24.036Z,14.21
2022-10-09T12:59:59.417Z,14.36
2022-10-09T13:02:32.004Z,14.37
2022-10-09T13:05:03.828Z,14.46
2022-10-09T13:07:35.130Z,14.42
2022-10-09T13:10:17.260Z,14.38
2022-10-09T13:12:55.739Z,14.51
2022-10-09T13:15:37.177Z,14.56
2022-10-09T13:18:24.029Z,14.53
2022-10-09T13:21:04.276Z,14.59
2022-10-09T13:23:37.126Z,14.60
2022-10-09T13:26:09.264Z,14.63
2022-10-09T13:28:41.623Z,14.74
2022-10-09T13:31:13.587Z,14.74
2022-10-09T13:33:44.871Z,14.69
2022-10-09T13:36:16.520Z,14.69
2022-10-09T13:38:48.904Z,14.58
2022-10-09T13:41:24.505Z,14.48
2022-10-09T13:43:56.482Z,14.43
2022-10-09T13:46:27.992Z,14.42
2022-10-09T13:48:59.258Z,14.51
2022-10-09T13:51:32.246Z,14.55
2022-10-09T13:54:03.589Z,14.57
2022-10-09T13:56:35.197Z,14.61
2022-10-09T13:59:06.992Z,14.48
2022-10-09T14:01:38.312Z,14.48
2022-10-09T14:04:09.591Z,14.38
2022-10-09T14:06:41.176Z,14.43
2022-10-09T14:09:12.739Z,14.62
2022-10-09T14:11:44.952Z,14.76
2022-10-09T14:14:16.451Z,14.71
2022-10-09T14:16:47.913Z,14.73
2022-10-09T14:19:19.208Z,14.68
2022-10-09T14:21:50.423Z,14.72
2022-10-09T14:24:21.957Z,14.86
2022-10-09T14:26:53.485Z,14.90
2022-10-09T14:29:24.685Z,14.91
2022-10-09T14:31:55.966Z,14.85
2022-10-09T14:34:27.164Z,14.61
2022-10-09T14:36:58.394Z,14.55
2022-10-09T14:39:29.775Z,14.47
2022-10-09T14:42:00.941Z,14.45
2022-10-09T14:44:32.039Z,14.44
2022-10-09T14:47:03.350Z,14.40
2022-10-09T14:49:34.678Z,14.38
2022-10-09T14:52:05.815Z,14.25
2022-10-09T14:54:37.181Z,14.19
2022-10-09T14:57:08.299Z,14.07
2022-10-09T14:59:39.670Z,13.94
2022-10-09T15:02:17.900Z,13.99
2022-10-09T15:04:49.208Z,14.18
2022-10-09T15:07:20.610Z,14.04
2022-10-09T15:09:51.939Z,13.82
2022-10-09T15:12:23.239Z,13.74
2022-10-09T15:14:54.481Z,13.67
2022-10-09T15:17:25.892Z,13.75
2022-10-09T15:19:57.274Z,13.92
2022-10-09T15:22:28.742Z,13.95
2022-10-09T15:25:00.007Z,13.68
2022-10-09T15:27:31.163Z,13.64
2022-10-09T15:30:02.495Z,13.59
2022-10-09T15:32:33.667Z,13.53
2022-10-09T15:35:05.024Z,13.55
2022-10-09T15:37:36.340Z,13.48
2022-10-09T15:40:08.425Z,13.40
2022-10-09T15:42:41.751Z,13.47
2022-10-09T15:45:13.708Z,13.41
2022-10-09T15:47:51.963Z,13.32
2022-10-09T15:50:23.255Z,13.21
2022-10-09T15:52:56.692Z,13.26
2022-10-09T15:55:27.855Z,13.23
2022-10-09T15:57:59.353Z,13.07
2022-10-09T16:00:30.662Z,13.06
2022-10-09T16:03:01.914Z,13.01
2022-10-09T16:05:37.399Z,13.06
2022-10-09T16:08:09.061Z,13.10
2022-10-09T16:10:48.663Z,13.10
2022-10-09T16:13:20.860Z,13.00
2022-10-09T16:15:52.272Z,12.86
2022-10-09T16:18:25.239Z,12.80
2022-10-09T16:20:56.503Z,12.78
2022-10-09T16:23:27.737Z,12.71
2022-10-09T16:26:03.491Z,12.55
2022-10-09T16:28:35.799Z,12.34
2022-10-09T16:31:07.372Z,12.25
2022-10-09T16:33:38.790Z,12.34
2022-10-09T16:36:42.777Z,12.29
2022-10-09T16:39:14.238Z,12.31
2022-10-09T16:41:45.491Z,12.38
2022-10-09T16:44:17.357Z,12.38
2022-10-09T16:46:48.566Z,12.37
2022-10-09T16:49:22.863Z,12.31
2022-10-09T16:51:56.368Z,12.31
2022-10-09T16:54:28.104Z,12.24
2022-10-09T16:56:59.406Z,12.01
2022-10-09T16:59:33.693Z,11.87
2022-10-09T17:02:05.012Z,11.83
2022-10-09T17:04:39.648Z,11.71
2022-10-09T17:07:09.802Z,11.64
2022-10-09T17:09:48.401Z,11.60
2022-10-09T17:12:20.524Z,11.60
2022-10-09T17:14:56.108Z,11.62
2022-10-09T17:17:27.848Z,11.66
2022-10-09T17:19:59.300Z,11.71
2022-10-09T17:22:30.627Z,11.63
2022-10-09T17:25:02.696Z,11.50
2022-10-09T17:27:34.421Z,11.41
2022-10-09T17:30:07.235Z,11.40
2022-10-09T17:32:39.004Z,11.28
2022-10-09T17:35:12.267Z,11.17
2022-10-09T17:37:45.386Z,11.04
2022-10-09T17:40:17.226Z,10.92
2022-10-09T17:42:49.577Z,11.03
2022-10-09T17:45:21.133Z,11.13
2022-10-09T17:47:54.369Z,11.14
2022-10-09T17:50:27.604Z,11.06
2022-10-09T17:52:59.377Z,10.89
2022-10-09T17:55:31.806Z,10.81
2022-10-09T17:58:03.209Z,10.82
2022-10-09T18:00:34.695Z,10.90
2022-10-09T18:03:06.094Z,10.97
2022-10-09T18:05:43.786Z,10.91
2022-10-09T18:08:16.165Z,10.91
2022-10-09T18:10:47.898Z,10.90
2022-10-09T18:13:19.868Z,10.85
2022-10-09T18:15:51.912Z,10.74
2022-10-09T18:18:24.114Z,10.69
2022-10-09T18:20:56.247Z,10.67
2022-10-09T18:23:27.581Z,10.57
2022-10-09T18:25:59.595Z,10.48
2022-10-09T18:28:32.111Z,10.55
2022-10-09T18:31:05.311Z,10.47
2022-10-09T18:33:38.380Z,10.39
2022-10-09T18:36:14.813Z,10.34
2022-10-09T18:38:47.018Z,10.30
2022-10-09T18:41:19.606Z,10.28
2022-10-09T18:43:53.916Z,10.31
2022-10-09T18:46:29.187Z,10.28
2022-10-09T18:49:02.116Z,10.30
2022-10-09T18:51:34.154Z,10.29
2022-10-09T18:54:08.535Z,10.26
2022-10-09T18:56:41.468Z,10.28
2022-10-09T18:59:17.030Z,10.11
2022-10-09T19:01:49.349Z,9.97
2022-10-09T19:04:20.912Z,10.01
2022-10-09T19:06:52.798Z,9.90
2022-10-09T19:09:24.242Z,9.88
2022-10-09T19:11:56.364Z,9.91
2022-10-09T19:14:27.579Z,9.81
2022-10-09T19:16:58.807Z,9.69
2022-10-09T19:19:30.545Z,9.52
2022-10-09T19:22:01.764Z,9.32
2022-10-09T19:24:34.453Z,9.13
2022-10-09T19:27:05.897Z,9.04
2022-10-09T19:29:37.800Z,9.04
2022-10-09T19:32:09.526Z,9.13
2022-10-09T19:34:41.158Z,9.17
2022-10-09T19:37:13.135Z,9.11
2022-10-09T19:39:49.116Z,9.02
2022-10-09T19:42:20.906Z,8.95
2022-10-09T19:44:52.278Z,8.98
2022-10-09T19:47:24.410Z,9.11
2022-10-09T19:49:55.699Z,9.17
2022-10-09T19:52:27.123Z,9.21
2022-10-09T19:54:58.490Z,9.16
2022-10-09T19:57:29.758Z,9.04
2022-10-09T20:00:01.051Z,9.10
2022-10-09T20:02:35.489Z,9.16
2022-10-09T20:05:07.779Z,9.15
2022-10-09T20:07:39.030Z,9.19
2022-10-09T20:10:11.900Z,9.22
2022-10-09T20:12:45.933Z,9.21
2022-10-09T20:15:17.702Z,9.17
2022-10-09T20:17:49.439Z,9.15
2022-10-09T20:20:20.866Z,9.14
2022-10-09T20:22:52.530Z,9.04
2022-10-09T20:25:24.673Z,8.97
2022-10-09T20:27:55.992Z,8.87
2022-10-09T20:30:27.361Z,8.90
2022-10-09T20:32:59.629Z,8.91
2022-10-09T20:35:31.482Z,8.88
2022-10-09T20:38:04.065Z,8.89
2022-10-09T20:40:37.400Z,8.85
2022-10-09T20:43:08.838Z,8.78
2022-10-09T20:45:44.644Z,8.63
2022-10-09T20:48:16.281Z,8.65
2022-10-09T20:50:47.867Z,8.62
2022-10-09T20:53:19.303Z,8.53
2022-10-09T20:55:50.505Z,8.31
2022-10-09T20:58:21.766Z,8.38
2022-10-09T21:00:53.124Z,8.56
2022-10-09T21:03:24.704Z,8.62
2022-10-09T21:05:56.066Z,8.61
2022-10-09T21:08:27.377Z,8.50
2022-10-09T21:10:58.681Z,8.52
2022-10-09T21:13:29.882Z,8.50
2022-10-09T21:16:01.033Z,8.29
2022-10-09T21:18:32.454Z,8.06
2022-10-09T21:21:07.283Z,8.00
2022-10-09T21:23:37.113Z,8.02
2022-10-09T21:26:12.408Z,8.07
2022-10-09T21:28:44.079Z,7.96
2022-10-09T21:31:17.299Z,8.09
2022-10-09T21:33:48.761Z,8.22
2022-10-09T21:36:29.822Z,8.35
2022-10-09T21:39:01.167Z,8.24
2022-10-09T21:41:33.225Z,8.27
2022-10-09T21:44:05.078Z,8.21
2022-10-09T21:46:37.884Z,8.10
2022-10-09T21:49:09.638Z,8.04
2022-10-09T21:51:40.868Z,8.12
2022-10-09T21:54:12.052Z,8.24
2022-10-09T21:56:43.492Z,8.26
2022-10-09T21:59:15.280Z,8.18
2022-10-09T22:01:46.680Z,8.11
2022-10-09T22:04:17.999Z,7.99
2022-10-09T22:06:49.142Z,7.94
2022-10-09T22:09:20.517Z,7.77
2022-10-09T22:11:51.760Z,7.72
2022-10-09T22:14:23.105Z,7.80
2022-10-09T22:16:54.601Z,7.95
2022-10-09T22:19:26.526Z,7.91
2022-10-09T22:21:57.797Z,7.82
2022-10-09T22:24:29.398Z,7.88
2022-10-09T22:27:00.812Z,7.71
2022-10-09T22:29:32.089Z,7.53
2022-10-09T22:32:03.282Z,7.34
2022-10-09T22:34:34.544Z,7.10
2022-10-09T22:37:05.861Z,7.01
2022-10-09T22:39:37.000Z,7.01
2022-10-09T22:42:08.266Z,6.89
2022-10-09T22:44:39.550Z,6.93
2022-10-09T22:47:10.698Z,6.90
2022-10-09T22:49:41.937Z,6.84
2022-10-09T22:52:13.233Z,7.05
2022-10-09T22:54:45.014Z,7.15
2022-10-09T22:57:16.227Z,7.20
2022-10-09T22:59:47.637Z,7.10
2022-10-09T23:02:19.138Z,6.98
2022-10-09T23:04:50.473Z,6.94
2022-10-09T23:07:21.710Z,7.01
2022-10-09T23:09:52.956Z,6.92
2022-10-09T23:12:24.221Z,6.96
2022-10-09T23:14:56.190Z,6.98
2022-10-09T23:17:27.631Z,7.04
2022-10-09T23:19:58.759Z,7.15
2022-10-09T23:22:29.917Z,7.18
2022-10-09T23:25:01.225Z,7.16
2022-10-09T23:27:32.599Z,7.04
2022-10-09T23:30:03.981Z,7.01
2022-10-09T23:32:35.315Z,7.01
2022-10-09T23:35:07.488Z,7.05
2022-10-09T23:37:38.639Z,7.11
2022-10-09T23:40:11.133Z,7.11
2022-10-09T23:42:42.395Z,7.04
2022-10-09T23:45:14.165Z,7.00
2022-10-09T23:47:45.437Z,6.92
2022-10-09T23:50:16.672Z,6.88
2022-10-09T23:52:48.139Z,6.82
2022-10-09T23:55:19.563Z,6.69
2022-10-09T23:57:51.761Z,6.77
